sensor_id;sensor_type;location;lat;lon;timestamp;temperature;humidity
10530;DHT22;5313;48.834;9.228;2023-11-21T00:02:18;8.30;99.90
10530;DHT22;5313;48.834;9.228;2023-11-21T00:04:43;8.30;99.90
10530;DHT22;5313;48.834;9.228;2023-11-21T00:07:09;8.30;99.90
10530;DHT22;5313;48.834;9.228;2023-11-21T00:09:34;8.30;99.90
10530;DHT22;5313;48.834;9.228;2023-11-21T00:12:02;8.30;99.90
10530;DHT22;5313;48.834;9.228;2023-11-21T00:14:27;8.30;99.90
10530;DHT22;5313;48.834;9.228;2023-11-21T00:16:53;8.30;99.90
10530;DHT22;5313;48.834;9.228;2023-11-21T00:19:19;8.30;99.90
10530;DHT22;5313;48.834;9.228;2023-11-21T00:21:44;8.30;99.90
10530;DHT22;5313;48.834;9.228;2023-11-21T00:24:11;8.30;99.90
10530;DHT22;5313;48.834;9.228;2023-11-21T00:26:39;8.30;99.90
10530;DHT22;5313;48.834;9.228;2023-11-21T00:29:05;8.30;99.90
10530;DHT22;5313;48.834;9.228;2023-11-21T00:31:34;8.30;99.90
10530;DHT22;5313;48.834;9.228;2023-11-21T00:34:02;8.30;99.90
10530;DHT22;5313;48.834;9.228;2023-11-21T00:36:30;8.40;99.90
10530;DHT22;5313;48.834;9.228;2023-11-21T00:38:55;8.40;99.90
10530;DHT22;5313;48.834;9.228;2023-11-21T00:41:21;8.50;99.90
10530;DHT22;5313;48.834;9.228;2023-11-21T00:43:46;8.50;99.90
10530;DHT22;5313;48.834;9.228;2023-11-21T00:46:12;8.50;99.90
10530;DHT22;5313;48.834;9.228;2023-11-21T00:48:37;8.50;99.90
10530;DHT22;5313;48.834;9.228;2023-11-21T00:51:03;8.40;99.90
10530;DHT22;5313;48.834;9.228;2023-11-21T00:53:28;8.40;99.90
10530;DHT22;5313;48.834;9.228;2023-11-21T00:55:54;8.40;99.90
10530;DHT22;5313;48.834;9.228;2023-11-21T00:58:23;8.40;99.90
10530;DHT22;5313;48.834;9.228;2023-11-21T01:00:48;8.40;99.90
10530;DHT22;5313;48.834;9.228;2023-11-21T01:03:14;8.40;99.90
10530;DHT22;5313;48.834;9.228;2023-11-21T01:05:39;8.40;99.90
10530;DHT22;5313;48.834;9.228;2023-11-21T01:08:05;8.50;99.90
10530;DHT22;5313;48.834;9.228;2023-11-21T01:10:31;8.50;99.90
10530;DHT22;5313;48.834;9.228;2023-11-21T01:12:56;8.50;99.90
10530;DHT22;5313;48.834;9.228;2023-11-21T01:15:23;8.50;99.90
10530;DHT22;5313;48.834;9.228;2023-11-21T01:17:48;8.50;99.90
10530;DHT22;5313;48.834;9.228;2023-11-21T01:20:14;8.50;99.90
10530;DHT22;5313;48.834;9.228;2023-11-21T01:22:40;8.50;99.90
10530;DHT22;5313;48.834;9.228;2023-11-21T01:25:06;8.60;99.90
10530;DHT22;5313;48.834;9.228;2023-11-21T01:27:34;8.60;99.90
10530;DHT22;5313;48.834;9.228;2023-11-21T01:30:01;8.60;99.90
10530;DHT22;5313;48.834;9.228;2023-11-21T01:32:26;8.60;99.90
10530;DHT22;5313;48.834;9.228;2023-11-21T01:34:52;8.60;99.90
10530;DHT22;5313;48.834;9.228;2023-11-21T01:37:17;8.60;99.90
10530;DHT22;5313;48.834;9.228;2023-11-21T01:39:43;8.60;99.90
10530;DHT22;5313;48.834;9.228;2023-11-21T01:42:09;8.50;99.90
10530;DHT22;5313;48.834;9.228;2023-11-21T01:44:36;8.40;99.90
10530;DHT22;5313;48.834;9.228;2023-11-21T01:47:02;8.40;99.90
10530;DHT22;5313;48.834;9.228;2023-11-21T01:49:33;8.40;99.90
10530;DHT22;5313;48.834;9.228;2023-11-21T01:51:59;8.40;99.90
10530;DHT22;5313;48.834;9.228;2023-11-21T01:54:25;8.40;99.90
10530;DHT22;5313;48.834;9.228;2023-11-21T01:56:50;8.40;99.90
10530;DHT22;5313;48.834;9.228;2023-11-21T01:59:20;8.50;99.90
10530;DHT22;5313;48.834;9.228;2023-11-21T02:01:49;8.50;99.90
10530;DHT22;5313;48.834;9.228;2023-11-21T02:04:15;8.50;99.90
10530;DHT22;5313;48.834;9.228;2023-11-21T02:06:41;8.50;99.90
10530;DHT22;5313;48.834;9.228;2023-11-21T02:09:07;8.50;99.90
10530;DHT22;5313;48.834;9.228;2023-11-21T02:11:34;8.50;99.90
10530;DHT22;5313;48.834;9.228;2023-11-21T02:14:00;8.60;99.90
10530;DHT22;5313;48.834;9.228;2023-11-21T02:16:26;8.60;99.90
10530;DHT22;5313;48.834;9.228;2023-11-21T02:18:52;8.60;99.90
10530;DHT22;5313;48.834;9.228;2023-11-21T02:21:18;8.60;99.90
10530;DHT22;5313;48.834;9.228;2023-11-21T02:23:44;8.60;99.90
10530;DHT22;5313;48.834;9.228;2023-11-21T02:26:12;8.70;99.90
10530;DHT22;5313;48.834;9.228;2023-11-21T02:28:38;8.70;99.90
10530;DHT22;5313;48.834;9.228;2023-11-21T02:31:04;8.70;99.90
10530;DHT22;5313;48.834;9.228;2023-11-21T02:33:31;8.70;99.90
10530;DHT22;5313;48.834;9.228;2023-11-21T02:36:00;8.70;99.90
10530;DHT22;5313;48.834;9.228;2023-11-21T02:38:26;8.70;99.90
10530;DHT22;5313;48.834;9.228;2023-11-21T02:40:51;8.70;99.90
10530;DHT22;5313;48.834;9.228;2023-11-21T02:43:17;8.80;99.90
10530;DHT22;5313;48.834;9.228;2023-11-21T02:45:42;8.70;99.90
10530;DHT22;5313;48.834;9.228;2023-11-21T02:48:08;8.80;99.90
10530;DHT22;5313;48.834;9.228;2023-11-21T02:50:34;8.70;99.90
10530;DHT22;5313;48.834;9.228;2023-11-21T02:53:00;8.80;99.90
10530;DHT22;5313;48.834;9.228;2023-11-21T02:55:27;8.80;99.90
10530;DHT22;5313;48.834;9.228;2023-11-21T02:57:53;8.80;99.90
10530;DHT22;5313;48.834;9.228;2023-11-21T03:00:19;8.80;99.90
10530;DHT22;5313;48.834;9.228;2023-11-21T03:02:45;8.80;99.90
10530;DHT22;5313;48.834;9.228;2023-11-21T03:05:13;8.80;99.90
10530;DHT22;5313;48.834;9.228;2023-11-21T03:07:38;8.70;99.90
10530;DHT22;5313;48.834;9.228;2023-11-21T03:10:08;8.70;99.90
10530;DHT22;5313;48.834;9.228;2023-11-21T03:12:34;8.70;99.90
10530;DHT22;5313;48.834;9.228;2023-11-21T03:15:00;8.70;99.90
10530;DHT22;5313;48.834;9.228;2023-11-21T03:17:27;8.70;99.90
10530;DHT22;5313;48.834;9.228;2023-11-21T03:19:52;8.60;99.90
10530;DHT22;5313;48.834;9.228;2023-11-21T03:22:18;8.60;99.90
10530;DHT22;5313;48.834;9.228;2023-11-21T03:24:44;8.50;99.90
10530;DHT22;5313;48.834;9.228;2023-11-21T03:27:10;8.50;99.90
10530;DHT22;5313;48.834;9.228;2023-11-21T03:29:35;8.50;99.90
10530;DHT22;5313;48.834;9.228;2023-11-21T03:32:00;8.50;99.90
10530;DHT22;5313;48.834;9.228;2023-11-21T03:34:27;8.50;99.90
10530;DHT22;5313;48.834;9.228;2023-11-21T03:36:53;8.50;99.90
10530;DHT22;5313;48.834;9.228;2023-11-21T03:39:22;8.50;99.90
10530;DHT22;5313;48.834;9.228;2023-11-21T03:41:48;8.50;99.90
10530;DHT22;5313;48.834;9.228;2023-11-21T03:44:14;8.60;99.90
10530;DHT22;5313;48.834;9.228;2023-11-21T03:46:40;8.50;99.90
10530;DHT22;5313;48.834;9.228;2023-11-21T03:49:05;8.50;99.90
10530;DHT22;5313;48.834;9.228;2023-11-21T03:51:31;8.50;99.90
10530;DHT22;5313;48.834;9.228;2023-11-21T03:53:56;8.50;99.90
10530;DHT22;5313;48.834;9.228;2023-11-21T03:56:22;8.60;99.90
10530;DHT22;5313;48.834;9.228;2023-11-21T03:58:48;8.60;99.90
10530;DHT22;5313;48.834;9.228;2023-11-21T04:01:24;8.60;99.90
10530;DHT22;5313;48.834;9.228;2023-11-21T04:03:50;8.60;99.90
10530;DHT22;5313;48.834;9.228;2023-11-21T04:06:17;8.60;99.90
10530;DHT22;5313;48.834;9.228;2023-11-21T04:08:43;8.60;99.90
10530;DHT22;5313;48.834;9.228;2023-11-21T04:11:10;8.60;99.90
10530;DHT22;5313;48.834;9.228;2023-11-21T04:13:40;8.60;99.90
10530;DHT22;5313;48.834;9.228;2023-11-21T04:16:07;8.60;99.90
10530;DHT22;5313;48.834;9.228;2023-11-21T04:18:33;8.60;99.90
10530;DHT22;5313;48.834;9.228;2023-11-21T04:20:59;8.50;99.90
10530;DHT22;5313;48.834;9.228;2023-11-21T04:23:24;8.50;99.90
10530;DHT22;5313;48.834;9.228;2023-11-21T04:25:50;8.50;99.90
10530;DHT22;5313;48.834;9.228;2023-11-21T04:28:16;8.40;99.90
10530;DHT22;5313;48.834;9.228;2023-11-21T04:30:41;8.40;99.90
10530;DHT22;5313;48.834;9.228;2023-11-21T04:33:07;8.30;99.90
10530;DHT22;5313;48.834;9.228;2023-11-21T04:35:33;8.30;99.90
10530;DHT22;5313;48.834;9.228;2023-11-21T04:37:58;8.20;99.90
10530;DHT22;5313;48.834;9.228;2023-11-21T04:40:24;8.20;99.90
10530;DHT22;5313;48.834;9.228;2023-11-21T04:42:49;8.20;99.90
10530;DHT22;5313;48.834;9.228;2023-11-21T04:45:15;8.20;99.90
10530;DHT22;5313;48.834;9.228;2023-11-21T04:47:41;8.20;99.90
10530;DHT22;5313;48.834;9.228;2023-11-21T04:50:06;8.20;99.90
10530;DHT22;5313;48.834;9.228;2023-11-21T04:52:32;8.10;99.90
10530;DHT22;5313;48.834;9.228;2023-11-21T04:55:01;8.10;99.90
10530;DHT22;5313;48.834;9.228;2023-11-21T04:57:27;8.10;99.90
10530;DHT22;5313;48.834;9.228;2023-11-21T04:59:54;9.40;99.90
10530;DHT22;5313;48.834;9.228;2023-11-21T05:02:19;8.10;99.90
10530;DHT22;5313;48.834;9.228;2023-11-21T05:04:46;8.20;99.90
10530;DHT22;5313;48.834;9.228;2023-11-21T05:07:12;8.20;99.90
10530;DHT22;5313;48.834;9.228;2023-11-21T05:09:44;8.10;99.90
10530;DHT22;5313;48.834;9.228;2023-11-21T05:12:11;8.10;99.90
10530;DHT22;5313;48.834;9.228;2023-11-21T05:14:37;8.10;99.90
10530;DHT22;5313;48.834;9.228;2023-11-21T05:17:03;8.10;99.90
10530;DHT22;5313;48.834;9.228;2023-11-21T05:19:29;8.10;99.90
10530;DHT22;5313;48.834;9.228;2023-11-21T05:21:55;8.10;99.90
10530;DHT22;5313;48.834;9.228;2023-11-21T05:24:20;8.10;99.90
10530;DHT22;5313;48.834;9.228;2023-11-21T05:26:46;8.00;99.90
10530;DHT22;5313;48.834;9.228;2023-11-21T05:29:11;8.10;99.90
10530;DHT22;5313;48.834;9.228;2023-11-21T05:31:37;8.00;99.90
10530;DHT22;5313;48.834;9.228;2023-11-21T05:34:04;8.10;99.90
10530;DHT22;5313;48.834;9.228;2023-11-21T05:36:30;8.10;99.90
10530;DHT22;5313;48.834;9.228;2023-11-21T05:38:56;8.10;99.90
10530;DHT22;5313;48.834;9.228;2023-11-21T05:41:21;8.10;99.90
10530;DHT22;5313;48.834;9.228;2023-11-21T05:43:47;8.10;99.90
10530;DHT22;5313;48.834;9.228;2023-11-21T05:46:12;8.10;99.90
10530;DHT22;5313;48.834;9.228;2023-11-21T05:48:38;8.10;99.90
10530;DHT22;5313;48.834;9.228;2023-11-21T05:51:07;8.10;99.90
10530;DHT22;5313;48.834;9.228;2023-11-21T05:53:33;8.10;99.90
10530;DHT22;5313;48.834;9.228;2023-11-21T05:55:59;8.10;99.90
10530;DHT22;5313;48.834;9.228;2023-11-21T05:58:25;8.10;99.90
10530;DHT22;5313;48.834;9.228;2023-11-21T06:00:50;8.10;99.90
10530;DHT22;5313;48.834;9.228;2023-11-21T06:03:16;8.10;99.90
10530;DHT22;5313;48.834;9.228;2023-11-21T06:05:42;8.10;99.90
10530;DHT22;5313;48.834;9.228;2023-11-21T06:08:09;8.10;99.90
10530;DHT22;5313;48.834;9.228;2023-11-21T06:10:35;8.10;99.90
10530;DHT22;5313;48.834;9.228;2023-11-21T06:13:01;8.10;99.90
10530;DHT22;5313;48.834;9.228;2023-11-21T06:15:26;8.10;99.90
10530;DHT22;5313;48.834;9.228;2023-11-21T06:17:53;8.10;99.90
10530;DHT22;5313;48.834;9.228;2023-11-21T06:20:19;8.10;99.90
10530;DHT22;5313;48.834;9.228;2023-11-21T06:22:46;8.00;99.90
10530;DHT22;5313;48.834;9.228;2023-11-21T06:25:13;8.10;99.90
10530;DHT22;5313;48.834;9.228;2023-11-21T06:27:40;8.00;99.90
10530;DHT22;5313;48.834;9.228;2023-11-21T06:30:07;8.10;99.90
10530;DHT22;5313;48.834;9.228;2023-11-21T06:32:34;8.10;99.90
10530;DHT22;5313;48.834;9.228;2023-11-21T06:35:01;8.10;99.90
10530;DHT22;5313;48.834;9.228;2023-11-21T06:37:28;8.10;99.90
10530;DHT22;5313;48.834;9.228;2023-11-21T06:39:54;8.10;99.90
10530;DHT22;5313;48.834;9.228;2023-11-21T06:42:20;8.10;99.90
10530;DHT22;5313;48.834;9.228;2023-11-21T06:44:46;8.20;99.90
10530;DHT22;5313;48.834;9.228;2023-11-21T06:47:12;8.20;99.90
10530;DHT22;5313;48.834;9.228;2023-11-21T06:49:37;8.20;99.90
10530;DHT22;5313;48.834;9.228;2023-11-21T06:52:04;8.30;99.90
10530;DHT22;5313;48.834;9.228;2023-11-21T06:54:31;8.30;99.90
10530;DHT22;5313;48.834;9.228;2023-11-21T06:56:56;8.30;99.90
10530;DHT22;5313;48.834;9.228;2023-11-21T06:59:22;8.30;99.90
10530;DHT22;5313;48.834;9.228;2023-11-21T07:01:47;6.60;99.90
10530;DHT22;5313;48.834;9.228;2023-11-21T07:04:13;8.20;99.90
10530;DHT22;5313;48.834;9.228;2023-11-21T07:06:38;8.30;99.90
10530;DHT22;5313;48.834;9.228;2023-11-21T07:09:04;8.30;99.90
10530;DHT22;5313;48.834;9.228;2023-11-21T07:11:29;8.40;99.90
10530;DHT22;5313;48.834;9.228;2023-11-21T07:13:55;8.40;99.90
10530;DHT22;5313;48.834;9.228;2023-11-21T07:16:20;8.40;99.90
10530;DHT22;5313;48.834;9.228;2023-11-21T07:18:46;8.40;99.90
10530;DHT22;5313;48.834;9.228;2023-11-21T07:21:11;8.40;99.90
10530;DHT22;5313;48.834;9.228;2023-11-21T07:23:38;8.40;99.90
10530;DHT22;5313;48.834;9.228;2023-11-21T07:26:03;8.40;99.90
10530;DHT22;5313;48.834;9.228;2023-11-21T07:28:34;8.40;99.90
10530;DHT22;5313;48.834;9.228;2023-11-21T07:30:59;8.50;99.90
10530;DHT22;5313;48.834;9.228;2023-11-21T07:33:25;8.40;99.90
10530;DHT22;5313;48.834;9.228;2023-11-21T07:35:51;8.50;99.90
10530;DHT22;5313;48.834;9.228;2023-11-21T07:38:17;8.50;99.90
10530;DHT22;5313;48.834;9.228;2023-11-21T07:40:43;8.50;99.90
10530;DHT22;5313;48.834;9.228;2023-11-21T07:43:08;8.50;99.90
10530;DHT22;5313;48.834;9.228;2023-11-21T07:45:34;8.40;99.90
10530;DHT22;5313;48.834;9.228;2023-11-21T07:48:00;8.50;99.90
10530;DHT22;5313;48.834;9.228;2023-11-21T07:50:28;9.00;99.90
10530;DHT22;5313;48.834;9.228;2023-11-21T07:52:54;8.50;99.90
10530;DHT22;5313;48.834;9.228;2023-11-21T07:55:20;8.50;99.90
10530;DHT22;5313;48.834;9.228;2023-11-21T07:57:45;8.60;99.90
10530;DHT22;5313;48.834;9.228;2023-11-21T08:00:11;8.60;99.90
10530;DHT22;5313;48.834;9.228;2023-11-21T08:02:40;8.60;99.90
10530;DHT22;5313;48.834;9.228;2023-11-21T08:05:11;8.60;99.90
10530;DHT22;5313;48.834;9.228;2023-11-21T08:07:37;8.60;99.90
10530;DHT22;5313;48.834;9.228;2023-11-21T08:10:03;8.70;99.90
10530;DHT22;5313;48.834;9.228;2023-11-21T08:12:30;8.70;99.90
10530;DHT22;5313;48.834;9.228;2023-11-21T08:14:56;8.70;99.90
10530;DHT22;5313;48.834;9.228;2023-11-21T08:17:21;8.80;99.90
10530;DHT22;5313;48.834;9.228;2023-11-21T08:19:47;8.90;99.90
10530;DHT22;5313;48.834;9.228;2023-11-21T08:22:15;8.90;99.90
10530;DHT22;5313;48.834;9.228;2023-11-21T08:24:43;8.80;99.90
10530;DHT22;5313;48.834;9.228;2023-11-21T08:27:09;8.80;99.90
10530;DHT22;5313;48.834;9.228;2023-11-21T08:29:34;8.80;99.90
10530;DHT22;5313;48.834;9.228;2023-11-21T08:32:02;8.80;99.90
10530;DHT22;5313;48.834;9.228;2023-11-21T08:34:27;8.80;99.90
10530;DHT22;5313;48.834;9.228;2023-11-21T08:36:54;8.90;99.90
10530;DHT22;5313;48.834;9.228;2023-11-21T08:39:19;9.00;99.90
10530;DHT22;5313;48.834;9.228;2023-11-21T08:41:45;9.00;99.90
10530;DHT22;5313;48.834;9.228;2023-11-21T08:44:11;9.00;99.90
10530;DHT22;5313;48.834;9.228;2023-11-21T08:46:36;9.10;99.90
10530;DHT22;5313;48.834;9.228;2023-11-21T08:49:04;9.10;99.90
10530;DHT22;5313;48.834;9.228;2023-11-21T08:51:30;9.20;99.90
10530;DHT22;5313;48.834;9.228;2023-11-21T08:53:55;9.30;99.90
10530;DHT22;5313;48.834;9.228;2023-11-21T08:56:25;9.40;99.90
10530;DHT22;5313;48.834;9.228;2023-11-21T08:58:50;9.40;99.90
10530;DHT22;5313;48.834;9.228;2023-11-21T09:01:16;9.30;99.90
10530;DHT22;5313;48.834;9.228;2023-11-21T09:03:42;9.20;99.90
10530;DHT22;5313;48.834;9.228;2023-11-21T09:06:09;9.30;99.90
10530;DHT22;5313;48.834;9.228;2023-11-21T09:08:35;9.40;99.90
10530;DHT22;5313;48.834;9.228;2023-11-21T09:11:00;9.40;99.90
10530;DHT22;5313;48.834;9.228;2023-11-21T09:13:26;9.50;99.90
10530;DHT22;5313;48.834;9.228;2023-11-21T09:15:52;9.60;99.90
10530;DHT22;5313;48.834;9.228;2023-11-21T09:18:17;9.70;99.90
10530;DHT22;5313;48.834;9.228;2023-11-21T09:20:43;9.60;99.90
10530;DHT22;5313;48.834;9.228;2023-11-21T09:23:09;9.50;99.90
10530;DHT22;5313;48.834;9.228;2023-11-21T09:25:35;9.50;99.90
10530;DHT22;5313;48.834;9.228;2023-11-21T09:28:03;9.50;99.90
10530;DHT22;5313;48.834;9.228;2023-11-21T09:30:33;9.50;99.90
10530;DHT22;5313;48.834;9.228;2023-11-21T09:32:59;9.50;99.90
10530;DHT22;5313;48.834;9.228;2023-11-21T09:35:25;9.60;99.90
10530;DHT22;5313;48.834;9.228;2023-11-21T09:37:53;9.50;99.90
10530;DHT22;5313;48.834;9.228;2023-11-21T09:40:21;9.40;99.90
10530;DHT22;5313;48.834;9.228;2023-11-21T09:45:27;9.50;99.90
10530;DHT22;5313;48.834;9.228;2023-11-21T09:47:54;9.50;99.90
10530;DHT22;5313;48.834;9.228;2023-11-21T09:50:24;9.40;99.90
10530;DHT22;5313;48.834;9.228;2023-11-21T09:53:03;9.60;99.90
10530;DHT22;5313;48.834;9.228;2023-11-21T09:55:36;9.60;99.90
10530;DHT22;5313;48.834;9.228;2023-11-21T09:58:03;9.60;99.90
10530;DHT22;5313;48.834;9.228;2023-11-21T10:00:30;9.70;99.90
10530;DHT22;5313;48.834;9.228;2023-11-21T10:02:58;9.80;99.90
10530;DHT22;5313;48.834;9.228;2023-11-21T10:05:25;9.70;99.90
10530;DHT22;5313;48.834;9.228;2023-11-21T10:07:50;9.60;99.90
10530;DHT22;5313;48.834;9.228;2023-11-21T10:10:18;9.60;99.90
10530;DHT22;5313;48.834;9.228;2023-11-21T10:12:51;9.60;99.90
10530;DHT22;5313;48.834;9.228;2023-11-21T10:15:21;9.60;99.90
10530;DHT22;5313;48.834;9.228;2023-11-21T10:17:49;9.40;99.90
10530;DHT22;5313;48.834;9.228;2023-11-21T10:20:15;9.40;99.90
10530;DHT22;5313;48.834;9.228;2023-11-21T10:22:42;9.30;99.90
10530;DHT22;5313;48.834;9.228;2023-11-21T10:25:09;9.30;99.90
10530;DHT22;5313;48.834;9.228;2023-11-21T10:27:36;9.20;99.90
10530;DHT22;5313;48.834;9.228;2023-11-21T10:30:04;9.30;99.90
10530;DHT22;5313;48.834;9.228;2023-11-21T10:32:30;9.20;99.90
10530;DHT22;5313;48.834;9.228;2023-11-21T10:34:58;9.20;99.90
10530;DHT22;5313;48.834;9.228;2023-11-21T10:37:25;9.20;99.90
10530;DHT22;5313;48.834;9.228;2023-11-21T10:39:57;9.20;99.90
10530;DHT22;5313;48.834;9.228;2023-11-21T10:42:24;9.10;99.90
10530;DHT22;5313;48.834;9.228;2023-11-21T10:44:50;9.20;99.90
10530;DHT22;5313;48.834;9.228;2023-11-21T10:47:16;9.10;99.90
10530;DHT22;5313;48.834;9.228;2023-11-21T10:49:44;9.20;99.90
10530;DHT22;5313;48.834;9.228;2023-11-21T10:52:13;9.20;99.90
10530;DHT22;5313;48.834;9.228;2023-11-21T10:54:43;9.20;99.90
10530;DHT22;5313;48.834;9.228;2023-11-21T10:57:09;9.20;99.90
10530;DHT22;5313;48.834;9.228;2023-11-21T10:59:35;9.30;99.90
10530;DHT22;5313;48.834;9.228;2023-11-21T11:02:02;9.30;99.90
10530;DHT22;5313;48.834;9.228;2023-11-21T11:04:31;9.40;99.90
10530;DHT22;5313;48.834;9.228;2023-11-21T11:07:02;9.40;99.90
10530;DHT22;5313;48.834;9.228;2023-11-21T11:09:30;9.50;99.90
10530;DHT22;5313;48.834;9.228;2023-11-21T11:11:57;9.50;99.90
10530;DHT22;5313;48.834;9.228;2023-11-21T11:14:24;9.60;99.90
10530;DHT22;5313;48.834;9.228;2023-11-21T11:16:54;9.70;99.90
10530;DHT22;5313;48.834;9.228;2023-11-21T11:19:21;9.70;99.90
10530;DHT22;5313;48.834;9.228;2023-11-21T11:24:52;9.90;99.90
10530;DHT22;5313;48.834;9.228;2023-11-21T11:30:08;10.00;99.90
10530;DHT22;5313;48.834;9.228;2023-11-21T11:36:13;10.00;99.90
10530;DHT22;5313;48.834;9.228;2023-11-21T11:38:13;10.10;99.90
10530;DHT22;5313;48.834;9.228;2023-11-21T11:40:45;10.20;99.90
10530;DHT22;5313;48.834;9.228;2023-11-21T11:43:11;10.30;99.90
10530;DHT22;5313;48.834;9.228;2023-11-21T11:45:37;10.30;99.90
10530;DHT22;5313;48.834;9.228;2023-11-21T11:48:07;10.10;99.90
10530;DHT22;5313;48.834;9.228;2023-11-21T11:50:33;10.20;99.90
10530;DHT22;5313;48.834;9.228;2023-11-21T11:53:13;10.20;99.90
10530;DHT22;5313;48.834;9.228;2023-11-21T11:55:39;10.10;99.90
10530;DHT22;5313;48.834;9.228;2023-11-21T11:58:06;9.90;99.90
10530;DHT22;5313;48.834;9.228;2023-11-21T12:03:00;9.70;99.90
10530;DHT22;5313;48.834;9.228;2023-11-21T12:05:30;9.60;99.90
10530;DHT22;5313;48.834;9.228;2023-11-21T12:08:02;9.60;99.90
10530;DHT22;5313;48.834;9.228;2023-11-21T12:10:30;9.60;99.90
10530;DHT22;5313;48.834;9.228;2023-11-21T12:13:00;9.60;99.90
10530;DHT22;5313;48.834;9.228;2023-11-21T12:15:27;9.60;99.90
10530;DHT22;5313;48.834;9.228;2023-11-21T12:17:55;9.70;99.90
10530;DHT22;5313;48.834;9.228;2023-11-21T12:20:24;9.70;99.90
10530;DHT22;5313;48.834;9.228;2023-11-21T12:22:52;9.60;99.90
10530;DHT22;5313;48.834;9.228;2023-11-21T12:25:22;9.60;99.90
10530;DHT22;5313;48.834;9.228;2023-11-21T12:27:49;9.70;99.90
10530;DHT22;5313;48.834;9.228;2023-11-21T12:30:17;9.70;99.90
10530;DHT22;5313;48.834;9.228;2023-11-21T12:32:44;9.80;99.90
10530;DHT22;5313;48.834;9.228;2023-11-21T12:35:12;9.90;99.90
10530;DHT22;5313;48.834;9.228;2023-11-21T12:37:38;9.80;99.90
10530;DHT22;5313;48.834;9.228;2023-11-21T12:40:08;9.80;99.90
10530;DHT22;5313;48.834;9.228;2023-11-21T12:42:47;10.00;99.90
10530;DHT22;5313;48.834;9.228;2023-11-21T12:47:49;10.00;99.90
10530;DHT22;5313;48.834;9.228;2023-11-21T12:50:24;10.00;99.90
10530;DHT22;5313;48.834;9.228;2023-11-21T12:52:54;10.20;99.90
10530;DHT22;5313;48.834;9.228;2023-11-21T12:55:21;10.40;99.90
10530;DHT22;5313;48.834;9.228;2023-11-21T12:57:54;10.60;99.90
10530;DHT22;5313;48.834;9.228;2023-11-21T13:00:27;10.70;99.90
10530;DHT22;5313;48.834;9.228;2023-11-21T13:02:54;10.50;99.90
10530;DHT22;5313;48.834;9.228;2023-11-21T13:05:33;10.30;99.90
10530;DHT22;5313;48.834;9.228;2023-11-21T13:08:02;10.20;99.90
10530;DHT22;5313;48.834;9.228;2023-11-21T13:10:30;10.10;99.90
10530;DHT22;5313;48.834;9.228;2023-11-21T13:12:59;10.00;99.90
10530;DHT22;5313;48.834;9.228;2023-11-21T13:15:27;9.80;99.90
10530;DHT22;5313;48.834;9.228;2023-11-21T13:17:53;9.60;99.90
10530;DHT22;5313;48.834;9.228;2023-11-21T13:20:20;9.50;99.90
10530;DHT22;5313;48.834;9.228;2023-11-21T13:22:50;9.50;99.90
10530;DHT22;5313;48.834;9.228;2023-11-21T13:25:26;9.30;99.90
10530;DHT22;5313;48.834;9.228;2023-11-21T13:27:57;9.30;99.90
10530;DHT22;5313;48.834;9.228;2023-11-21T13:30:24;9.30;99.90
10530;DHT22;5313;48.834;9.228;2023-11-21T13:32:59;9.30;99.90
10530;DHT22;5313;48.834;9.228;2023-11-21T13:35:28;9.20;99.90
10530;DHT22;5313;48.834;9.228;2023-11-21T13:38:06;9.20;99.90
10530;DHT22;5313;48.834;9.228;2023-11-21T13:40:32;9.20;99.90
10530;DHT22;5313;48.834;9.228;2023-11-21T13:43:00;9.30;99.90
10530;DHT22;5313;48.834;9.228;2023-11-21T13:45:29;9.30;99.90
10530;DHT22;5313;48.834;9.228;2023-11-21T13:47:56;9.20;99.90
10530;DHT22;5313;48.834;9.228;2023-11-21T13:50:25;9.30;99.90
10530;DHT22;5313;48.834;9.228;2023-11-21T13:52:58;9.30;99.90
10530;DHT22;5313;48.834;9.228;2023-11-21T13:55:28;9.30;99.90
10530;DHT22;5313;48.834;9.228;2023-11-21T13:57:54;9.30;99.90
10530;DHT22;5313;48.834;9.228;2023-11-21T14:00:19;9.30;99.90
10530;DHT22;5313;48.834;9.228;2023-11-21T14:03:03;9.30;99.90
10530;DHT22;5313;48.834;9.228;2023-11-21T14:05:34;9.30;99.90
10530;DHT22;5313;48.834;9.228;2023-11-21T14:07:59;9.30;99.90
10530;DHT22;5313;48.834;9.228;2023-11-21T14:10:30;9.30;99.90
10530;DHT22;5313;48.834;9.228;2023-11-21T14:13:16;9.30;99.90
10530;DHT22;5313;48.834;9.228;2023-11-21T14:15:42;9.30;99.90
10530;DHT22;5313;48.834;9.228;2023-11-21T14:18:12;9.30;99.90
10530;DHT22;5313;48.834;9.228;2023-11-21T14:20:43;9.30;99.90
10530;DHT22;5313;48.834;9.228;2023-11-21T14:23:10;9.20;99.90
10530;DHT22;5313;48.834;9.228;2023-11-21T14:25:36;9.20;99.90
10530;DHT22;5313;48.834;9.228;2023-11-21T14:28:03;9.20;99.90
10530;DHT22;5313;48.834;9.228;2023-11-21T14:30:29;9.20;99.90
10530;DHT22;5313;48.834;9.228;2023-11-21T14:32:58;9.30;99.90
10530;DHT22;5313;48.834;9.228;2023-11-21T14:35:24;9.30;99.90
10530;DHT22;5313;48.834;9.228;2023-11-21T14:37:50;9.30;99.90
10530;DHT22;5313;48.834;9.228;2023-11-21T14:40:15;9.30;99.90
10530;DHT22;5313;48.834;9.228;2023-11-21T14:42:42;9.40;99.90
10530;DHT22;5313;48.834;9.228;2023-11-21T14:45:08;9.40;99.90
10530;DHT22;5313;48.834;9.228;2023-11-21T14:47:37;9.40;99.90
10530;DHT22;5313;48.834;9.228;2023-11-21T14:50:07;9.40;99.90
10530;DHT22;5313;48.834;9.228;2023-11-21T14:52:53;9.40;99.90
10530;DHT22;5313;48.834;9.228;2023-11-21T14:55:25;9.40;99.90
10530;DHT22;5313;48.834;9.228;2023-11-21T14:58:13;9.30;99.90
10530;DHT22;5313;48.834;9.228;2023-11-21T15:00:44;9.40;99.90
10530;DHT22;5313;48.834;9.228;2023-11-21T15:03:11;9.40;99.90
10530;DHT22;5313;48.834;9.228;2023-11-21T15:05:46;9.30;99.90
10530;DHT22;5313;48.834;9.228;2023-11-21T15:08:14;9.30;99.90
10530;DHT22;5313;48.834;9.228;2023-11-21T15:10:49;9.30;99.90
10530;DHT22;5313;48.834;9.228;2023-11-21T15:13:19;9.30;99.90
10530;DHT22;5313;48.834;9.228;2023-11-21T15:15:46;9.30;99.90
10530;DHT22;5313;48.834;9.228;2023-11-21T15:18:12;9.30;99.90
10530;DHT22;5313;48.834;9.228;2023-11-21T15:20:41;9.20;99.90
10530;DHT22;5313;48.834;9.228;2023-11-21T15:23:07;9.30;99.90
10530;DHT22;5313;48.834;9.228;2023-11-21T15:25:33;9.20;99.90
10530;DHT22;5313;48.834;9.228;2023-11-21T15:28:00;9.20;99.90
10530;DHT22;5313;48.834;9.228;2023-11-21T15:30:25;9.10;99.90
10530;DHT22;5313;48.834;9.228;2023-11-21T15:32:52;9.10;99.90
10530;DHT22;5313;48.834;9.228;2023-11-21T15:35:22;9.10;99.90
10530;DHT22;5313;48.834;9.228;2023-11-21T15:37:47;9.10;99.90
10530;DHT22;5313;48.834;9.228;2023-11-21T15:40:13;9.00;99.90
10530;DHT22;5313;48.834;9.228;2023-11-21T15:42:40;9.00;99.90
10530;DHT22;5313;48.834;9.228;2023-11-21T15:45:06;9.00;99.90
10530;DHT22;5313;48.834;9.228;2023-11-21T15:47:33;9.00;99.90
10530;DHT22;5313;48.834;9.228;2023-11-21T15:49:59;8.90;99.90
10530;DHT22;5313;48.834;9.228;2023-11-21T15:52:25;8.90;99.90
10530;DHT22;5313;48.834;9.228;2023-11-21T15:54:50;8.90;99.90
10530;DHT22;5313;48.834;9.228;2023-11-21T15:57:16;8.90;99.90
10530;DHT22;5313;48.834;9.228;2023-11-21T15:59:43;8.80;99.90
10530;DHT22;5313;48.834;9.228;2023-11-21T16:02:10;8.80;99.90
10530;DHT22;5313;48.834;9.228;2023-11-21T16:04:37;8.90;99.90
10530;DHT22;5313;48.834;9.228;2023-11-21T16:07:05;8.90;99.90
10530;DHT22;5313;48.834;9.228;2023-11-21T16:09:32;8.80;99.90
10530;DHT22;5313;48.834;9.228;2023-11-21T16:12:01;8.80;99.90
10530;DHT22;5313;48.834;9.228;2023-11-21T16:14:35;8.90;99.90
10530;DHT22;5313;48.834;9.228;2023-11-21T16:17:03;8.90;99.90